sensor_id;sensor_type;location;lat;lon;timestamp;temperature;humidity
8892;DHT22;4482;54.332;10.118;2023-04-01T00:01:00;7.70;99.90
8892;DHT22;4482;54.332;10.118;2023-04-01T00:03:29;7.60;99.90
8892;DHT22;4482;54.332;10.118;2023-04-01T00:05:56;7.60;99.90
8892;DHT22;4482;54.332;10.118;2023-04-01T00:08:23;7.60;99.90
8892;DHT22;4482;54.332;10.118;2023-04-01T00:10:49;7.60;99.90
8892;DHT22;4482;54.332;10.118;2023-04-01T00:13:16;7.50;99.90
8892;DHT22;4482;54.332;10.118;2023-04-01T00:15:43;7.50;99.90
8892;DHT22;4482;54.332;10.118;2023-04-01T00:18:10;7.40;99.90
8892;DHT22;4482;54.332;10.118;2023-04-01T00:20:38;7.40;99.90
8892;DHT22;4482;54.332;10.118;2023-04-01T00:23:05;7.40;99.90
8892;DHT22;4482;54.332;10.118;2023-04-01T00:25:31;7.30;99.90
8892;DHT22;4482;54.332;10.118;2023-04-01T00:27:58;7.30;99.90
8892;DHT22;4482;54.332;10.118;2023-04-01T00:30:27;7.30;99.90
8892;DHT22;4482;54.332;10.118;2023-04-01T00:32:54;7.20;99.90
8892;DHT22;4482;54.332;10.118;2023-04-01T00:35:21;7.30;99.90
8892;DHT22;4482;54.332;10.118;2023-04-01T00:37:49;7.20;99.90
8892;DHT22;4482;54.332;10.118;2023-04-01T00:40:22;7.20;99.90
8892;DHT22;4482;54.332;10.118;2023-04-01T00:42:49;7.20;99.90
8892;DHT22;4482;54.332;10.118;2023-04-01T00:45:27;7.10;99.90
8892;DHT22;4482;54.332;10.118;2023-04-01T00:47:55;7.10;99.90
8892;DHT22;4482;54.332;10.118;2023-04-01T00:50:22;7.10;99.90
8892;DHT22;4482;54.332;10.118;2023-04-01T00:52:50;7.20;99.90
8892;DHT22;4482;54.332;10.118;2023-04-01T00:55:18;7.10;99.90
8892;DHT22;4482;54.332;10.118;2023-04-01T00:57:46;7.00;99.90
8892;DHT22;4482;54.332;10.118;2023-04-01T01:00:14;7.00;99.90
8892;DHT22;4482;54.332;10.118;2023-04-01T01:02:42;7.00;99.90
8892;DHT22;4482;54.332;10.118;2023-04-01T01:05:10;6.90;99.90
8892;DHT22;4482;54.332;10.118;2023-04-01T01:07:38;6.90;99.90
8892;DHT22;4482;54.332;10.118;2023-04-01T01:10:10;6.90;99.90
8892;DHT22;4482;54.332;10.118;2023-04-01T01:12:39;6.80;99.90
8892;DHT22;4482;54.332;10.118;2023-04-01T01:15:09;6.70;99.90
8892;DHT22;4482;54.332;10.118;2023-04-01T01:17:44;6.60;99.90
8892;DHT22;4482;54.332;10.118;2023-04-01T01:20:19;6.50;99.90
8892;DHT22;4482;54.332;10.118;2023-04-01T01:22:52;6.60;99.90
8892;DHT22;4482;54.332;10.118;2023-04-01T01:25:28;6.50;99.90
8892;DHT22;4482;54.332;10.118;2023-04-01T01:27:58;6.50;99.90
8892;DHT22;4482;54.332;10.118;2023-04-01T01:30:33;6.50;99.90
8892;DHT22;4482;54.332;10.118;2023-04-01T01:35:48;6.40;99.90
8892;DHT22;4482;54.332;10.118;2023-04-01T01:38:16;6.40;99.90
8892;DHT22;4482;54.332;10.118;2023-04-01T01:40:44;6.30;99.90
8892;DHT22;4482;54.332;10.118;2023-04-01T01:43:12;6.30;99.90
8892;DHT22;4482;54.332;10.118;2023-04-01T01:45:40;6.30;99.90
8892;DHT22;4482;54.332;10.118;2023-04-01T01:48:08;6.20;99.90
8892;DHT22;4482;54.332;10.118;2023-04-01T01:50:36;6.20;99.90
8892;DHT22;4482;54.332;10.118;2023-04-01T01:53:05;6.20;99.90
8892;DHT22;4482;54.332;10.118;2023-04-01T01:55:33;6.10;99.90
8892;DHT22;4482;54.332;10.118;2023-04-01T01:58:00;6.10;99.90
8892;DHT22;4482;54.332;10.118;2023-04-01T02:00:28;6.00;99.90
8892;DHT22;4482;54.332;10.118;2023-04-01T02:02:56;6.00;99.90
8892;DHT22;4482;54.332;10.118;2023-04-01T02:05:24;6.00;99.90
8892;DHT22;4482;54.332;10.118;2023-04-01T02:07:53;5.90;99.90
8892;DHT22;4482;54.332;10.118;2023-04-01T02:10:24;5.90;99.90
8892;DHT22;4482;54.332;10.118;2023-04-01T02:12:51;5.90;99.90
8892;DHT22;4482;54.332;10.118;2023-04-01T02:15:19;5.80;99.90
8892;DHT22;4482;54.332;10.118;2023-04-01T02:17:47;5.80;99.90
8892;DHT22;4482;54.332;10.118;2023-04-01T02:20:14;5.80;99.90
8892;DHT22;4482;54.332;10.118;2023-04-01T02:22:43;5.80;99.90
8892;DHT22;4482;54.332;10.118;2023-04-01T02:25:12;5.80;99.90
8892;DHT22;4482;54.332;10.118;2023-04-01T02:27:41;5.70;99.90
8892;DHT22;4482;54.332;10.118;2023-04-01T02:30:09;5.70;99.90
8892;DHT22;4482;54.332;10.118;2023-04-01T02:32:37;5.70;99.90
8892;DHT22;4482;54.332;10.118;2023-04-01T02:35:05;5.70;99.90
8892;DHT22;4482;54.332;10.118;2023-04-01T02:37:32;5.60;99.90
8892;DHT22;4482;54.332;10.118;2023-04-01T02:39:59;5.60;99.90
8892;DHT22;4482;54.332;10.118;2023-04-01T02:42:26;5.60;99.90
8892;DHT22;4482;54.332;10.118;2023-04-01T02:44:54;5.60;99.90
8892;DHT22;4482;54.332;10.118;2023-04-01T02:47:20;5.60;99.90
8892;DHT22;4482;54.332;10.118;2023-04-01T02:49:47;5.60;99.90
8892;DHT22;4482;54.332;10.118;2023-04-01T02:52:14;5.60;99.90
8892;DHT22;4482;54.332;10.118;2023-04-01T02:54:40;5.50;99.90
8892;DHT22;4482;54.332;10.118;2023-04-01T02:57:07;5.50;99.90
8892;DHT22;4482;54.332;10.118;2023-04-01T02:59:34;5.50;99.90
8892;DHT22;4482;54.332;10.118;2023-04-01T03:02:02;5.40;99.90
8892;DHT22;4482;54.332;10.118;2023-04-01T03:04:28;5.40;99.90
8892;DHT22;4482;54.332;10.118;2023-04-01T03:06:55;5.40;99.90
8892;DHT22;4482;54.332;10.118;2023-04-01T03:09:22;5.40;99.90
8892;DHT22;4482;54.332;10.118;2023-04-01T03:11:48;5.30;99.90
8892;DHT22;4482;54.332;10.118;2023-04-01T03:14:15;5.30;99.90
8892;DHT22;4482;54.332;10.118;2023-04-01T03:16:41;5.40;99.90
8892;DHT22;4482;54.332;10.118;2023-04-01T03:19:09;5.30;99.90
8892;DHT22;4482;54.332;10.118;2023-04-01T03:21:36;5.30;99.90
8892;DHT22;4482;54.332;10.118;2023-04-01T03:24:03;5.30;99.90
8892;DHT22;4482;54.332;10.118;2023-04-01T03:26:30;5.30;99.90
8892;DHT22;4482;54.332;10.118;2023-04-01T03:28:56;5.30;99.90
8892;DHT22;4482;54.332;10.118;2023-04-01T03:31:23;5.10;99.90
8892;DHT22;4482;54.332;10.118;2023-04-01T03:33:49;5.10;99.90
8892;DHT22;4482;54.332;10.118;2023-04-01T03:36:17;5.00;99.90
8892;DHT22;4482;54.332;10.118;2023-04-01T03:38:44;5.00;99.90
8892;DHT22;4482;54.332;10.118;2023-04-01T03:41:11;5.00;99.90
8892;DHT22;4482;54.332;10.118;2023-04-01T03:43:38;5.00;99.90
8892;DHT22;4482;54.332;10.118;2023-04-01T03:46:05;5.00;99.90
8892;DHT22;4482;54.332;10.118;2023-04-01T03:48:31;4.90;99.90
8892;DHT22;4482;54.332;10.118;2023-04-01T03:50:58;5.00;99.90
8892;DHT22;4482;54.332;10.118;2023-04-01T03:53:29;4.90;99.90
8892;DHT22;4482;54.332;10.118;2023-04-01T03:55:55;4.90;99.90
8892;DHT22;4482;54.332;10.118;2023-04-01T03:58:22;4.90;99.90
8892;DHT22;4482;54.332;10.118;2023-04-01T04:00:49;4.90;99.90
8892;DHT22;4482;54.332;10.118;2023-04-01T04:03:15;4.90;99.90
8892;DHT22;4482;54.332;10.118;2023-04-01T04:05:46;4.90;99.90
8892;DHT22;4482;54.332;10.118;2023-04-01T04:08:12;4.90;99.90
8892;DHT22;4482;54.332;10.118;2023-04-01T04:10:40;5.00;99.90
8892;DHT22;4482;54.332;10.118;2023-04-01T04:13:08;4.90;99.90
8892;DHT22;4482;54.332;10.118;2023-04-01T04:15:34;4.90;99.90
8892;DHT22;4482;54.332;10.118;2023-04-01T04:18:01;4.90;99.90
8892;DHT22;4482;54.332;10.118;2023-04-01T04:20:28;4.80;99.90
8892;DHT22;4482;54.332;10.118;2023-04-01T04:22:54;4.90;99.90
8892;DHT22;4482;54.332;10.118;2023-04-01T04:25:21;4.80;99.90
8892;DHT22;4482;54.332;10.118;2023-04-01T04:27:49;4.80;99.90
8892;DHT22;4482;54.332;10.118;2023-04-01T04:30:16;4.90;99.90
8892;DHT22;4482;54.332;10.118;2023-04-01T04:32:42;4.90;99.90
8892;DHT22;4482;54.332;10.118;2023-04-01T04:35:09;4.80;99.90
8892;DHT22;4482;54.332;10.118;2023-04-01T04:37:36;4.80;99.90
8892;DHT22;4482;54.332;10.118;2023-04-01T04:40:03;4.80;99.90
8892;DHT22;4482;54.332;10.118;2023-04-01T04:42:29;4.80;99.90
8892;DHT22;4482;54.332;10.118;2023-04-01T04:44:57;4.80;99.90
8892;DHT22;4482;54.332;10.118;2023-04-01T04:47:24;4.80;99.90
8892;DHT22;4482;54.332;10.118;2023-04-01T04:49:50;4.80;99.90
8892;DHT22;4482;54.332;10.118;2023-04-01T04:52:17;4.70;99.90
8892;DHT22;4482;54.332;10.118;2023-04-01T04:54:44;4.70;99.90
8892;DHT22;4482;54.332;10.118;2023-04-01T04:57:10;4.70;99.90
8892;DHT22;4482;54.332;10.118;2023-04-01T04:59:37;4.70;99.90
8892;DHT22;4482;54.332;10.118;2023-04-01T05:02:05;4.70;99.90
8892;DHT22;4482;54.332;10.118;2023-04-01T05:04:34;4.80;99.90
8892;DHT22;4482;54.332;10.118;2023-04-01T05:07:02;4.70;99.90
8892;DHT22;4482;54.332;10.118;2023-04-01T05:09:29;4.70;99.90
8892;DHT22;4482;54.332;10.118;2023-04-01T05:11:56;4.70;99.90
8892;DHT22;4482;54.332;10.118;2023-04-01T05:14:23;4.70;99.90
8892;DHT22;4482;54.332;10.118;2023-04-01T05:16:49;4.70;99.90
8892;DHT22;4482;54.332;10.118;2023-04-01T05:19:18;4.70;99.90
8892;DHT22;4482;54.332;10.118;2023-04-01T05:21:44;4.70;99.90
8892;DHT22;4482;54.332;10.118;2023-04-01T05:24:11;4.70;99.90
8892;DHT22;4482;54.332;10.118;2023-04-01T05:26:37;4.70;99.90
8892;DHT22;4482;54.332;10.118;2023-04-01T05:29:04;4.80;99.90
8892;DHT22;4482;54.332;10.118;2023-04-01T05:31:31;4.70;99.90
8892;DHT22;4482;54.332;10.118;2023-04-01T05:33:58;4.80;99.90
8892;DHT22;4482;54.332;10.118;2023-04-01T05:36:28;4.80;99.90
8892;DHT22;4482;54.332;10.118;2023-04-01T05:38:55;4.80;99.90
8892;DHT22;4482;54.332;10.118;2023-04-01T05:41:22;4.70;99.90
8892;DHT22;4482;54.332;10.118;2023-04-01T05:43:48;4.70;99.90
8892;DHT22;4482;54.332;10.118;2023-04-01T05:46:15;4.60;99.90
8892;DHT22;4482;54.332;10.118;2023-04-01T05:48:42;4.70;99.90
8892;DHT22;4482;54.332;10.118;2023-04-01T05:51:11;4.70;99.90
8892;DHT22;4482;54.332;10.118;2023-04-01T05:53:39;4.70;99.90
8892;DHT22;4482;54.332;10.118;2023-04-01T05:56:06;4.70;99.90
8892;DHT22;4482;54.332;10.118;2023-04-01T05:58:34;4.70;99.90
8892;DHT22;4482;54.332;10.118;2023-04-01T06:01:01;4.70;99.90
8892;DHT22;4482;54.332;10.118;2023-04-01T06:03:28;4.60;99.90
8892;DHT22;4482;54.332;10.118;2023-04-01T06:05:55;4.60;99.90
8892;DHT22;4482;54.332;10.118;2023-04-01T06:08:22;4.60;99.90
8892;DHT22;4482;54.332;10.118;2023-04-01T06:10:53;4.70;99.90
8892;DHT22;4482;54.332;10.118;2023-04-01T06:13:25;4.70;99.90
8892;DHT22;4482;54.332;10.118;2023-04-01T06:15:57;4.70;99.90
8892;DHT22;4482;54.332;10.118;2023-04-01T06:21:12;4.70;99.90
8892;DHT22;4482;54.332;10.118;2023-04-01T06:23:48;4.70;99.90
8892;DHT22;4482;54.332;10.118;2023-04-01T06:26:24;4.80;99.90
8892;DHT22;4482;54.332;10.118;2023-04-01T06:28:56;4.70;99.90
8892;DHT22;4482;54.332;10.118;2023-04-01T06:31:39;4.80;99.90
8892;DHT22;4482;54.332;10.118;2023-04-01T06:34:20;4.80;99.90
8892;DHT22;4482;54.332;10.118;2023-04-01T06:36:55;4.80;99.90
8892;DHT22;4482;54.332;10.118;2023-04-01T06:39:42;4.80;99.90
8892;DHT22;4482;54.332;10.118;2023-04-01T06:42:15;4.80;99.90
8892;DHT22;4482;54.332;10.118;2023-04-01T06:44:48;4.70;99.90
8892;DHT22;4482;54.332;10.118;2023-04-01T06:47:27;4.70;99.90
8892;DHT22;4482;54.332;10.118;2023-04-01T06:49:56;4.80;99.90
8892;DHT22;4482;54.332;10.118;2023-04-01T06:52:26;4.80;99.90
8892;DHT22;4482;54.332;10.118;2023-04-01T06:54:55;4.80;99.90
8892;DHT22;4482;54.332;10.118;2023-04-01T06:57:28;4.80;99.90
8892;DHT22;4482;54.332;10.118;2023-04-01T06:59:56;4.80;99.90
8892;DHT22;4482;54.332;10.118;2023-04-01T07:02:25;4.80;99.90
8892;DHT22;4482;54.332;10.118;2023-04-01T07:04:55;4.80;99.90
8892;DHT22;4482;54.332;10.118;2023-04-01T07:07:25;4.70;99.90
8892;DHT22;4482;54.332;10.118;2023-04-01T07:09:54;4.70;99.90
8892;DHT22;4482;54.332;10.118;2023-04-01T07:12:27;4.70;99.90
8892;DHT22;4482;54.332;10.118;2023-04-01T07:15:01;4.70;99.90
8892;DHT22;4482;54.332;10.118;2023-04-01T07:17:31;4.80;99.90
8892;DHT22;4482;54.332;10.118;2023-04-01T07:20:02;4.70;99.90
8892;DHT22;4482;54.332;10.118;2023-04-01T07:22:29;4.80;99.90
8892;DHT22;4482;54.332;10.118;2023-04-01T07:24:59;4.70;99.90
8892;DHT22;4482;54.332;10.118;2023-04-01T07:27:27;4.70;99.90
8892;DHT22;4482;54.332;10.118;2023-04-01T07:29:55;4.70;99.90
8892;DHT22;4482;54.332;10.118;2023-04-01T07:32:25;4.70;99.90
8892;DHT22;4482;54.332;10.118;2023-04-01T07:35:00;4.70;99.90
8892;DHT22;4482;54.332;10.118;2023-04-01T07:37:30;4.70;99.90
8892;DHT22;4482;54.332;10.118;2023-04-01T07:40:02;4.70;99.90
8892;DHT22;4482;54.332;10.118;2023-04-01T07:42:33;4.80;99.90
8892;DHT22;4482;54.332;10.118;2023-04-01T07:45:05;4.70;99.90
8892;DHT22;4482;54.332;10.118;2023-04-01T07:47:43;4.70;99.90
8892;DHT22;4482;54.332;10.118;2023-04-01T07:50:22;4.70;99.90
8892;DHT22;4482;54.332;10.118;2023-04-01T07:52:59;4.70;99.90
8892;DHT22;4482;54.332;10.118;2023-04-01T07:55:29;4.70;99.90
8892;DHT22;4482;54.332;10.118;2023-04-01T07:57:58;4.80;99.90
8892;DHT22;4482;54.332;10.118;2023-04-01T08:00:27;4.70;99.90
8892;DHT22;4482;54.332;10.118;2023-04-01T08:03:07;4.70;99.90
8892;DHT22;4482;54.332;10.118;2023-04-01T08:05:40;4.70;99.90
8892;DHT22;4482;54.332;10.118;2023-04-01T08:08:09;4.70;99.90
8892;DHT22;4482;54.332;10.118;2023-04-01T08:10:41;4.70;99.90
8892;DHT22;4482;54.332;10.118;2023-04-01T08:13:11;4.60;99.90
8892;DHT22;4482;54.332;10.118;2023-04-01T08:15:41;4.60;99.90
8892;DHT22;4482;54.332;10.118;2023-04-01T08:18:15;4.60;99.90
8892;DHT22;4482;54.332;10.118;2023-04-01T08:20:47;4.60;99.90
8892;DHT22;4482;54.332;10.118;2023-04-01T08:23:16;4.60;99.90
8892;DHT22;4482;54.332;10.118;2023-04-01T08:25:45;4.60;99.90
8892;DHT22;4482;54.332;10.118;2023-04-01T08:28:16;4.50;99.90
8892;DHT22;4482;54.332;10.118;2023-04-01T08:30:44;4.50;99.90
8892;DHT22;4482;54.332;10.118;2023-04-01T08:33:16;4.50;99.90
8892;DHT22;4482;54.332;10.118;2023-04-01T08:35:45;4.50;99.90
8892;DHT22;4482;54.332;10.118;2023-04-01T08:38:14;4.50;99.90
8892;DHT22;4482;54.332;10.118;2023-04-01T08:43:28;4.40;99.90
8892;DHT22;4482;54.332;10.118;2023-04-01T08:46:05;4.50;99.90
8892;DHT22;4482;54.332;10.118;2023-04-01T08:48:37;4.50;99.90
8892;DHT22;4482;54.332;10.118;2023-04-01T08:53:58;4.50;99.90
8892;DHT22;4482;54.332;10.118;2023-04-01T08:56:29;4.50;99.90
8892;DHT22;4482;54.332;10.118;2023-04-01T08:59:08;4.40;99.90
8892;DHT22;4482;54.332;10.118;2023-04-01T09:04:25;4.40;99.90
8892;DHT22;4482;54.332;10.118;2023-04-01T09:06:55;4.30;99.90
8892;DHT22;4482;54.332;10.118;2023-04-01T09:09:28;4.40;99.90
8892;DHT22;4482;54.332;10.118;2023-04-01T09:12:11;4.40;99.90
8892;DHT22;4482;54.332;10.118;2023-04-01T09:14:50;4.30;99.90
8892;DHT22;4482;54.332;10.118;2023-04-01T09:17:27;4.20;99.90
8892;DHT22;4482;54.332;10.118;2023-04-01T09:20:07;4.20;99.90
8892;DHT22;4482;54.332;10.118;2023-04-01T09:22:50;4.20;99.90
8892;DHT22;4482;54.332;10.118;2023-04-01T09:25:38;4.20;99.90
8892;DHT22;4482;54.332;10.118;2023-04-01T09:28:12;4.20;99.90
8892;DHT22;4482;54.332;10.118;2023-04-01T09:30:57;4.20;99.90
8892;DHT22;4482;54.332;10.118;2023-04-01T09:33:42;4.20;99.90
8892;DHT22;4482;54.332;10.118;2023-04-01T09:36:17;4.20;99.90
8892;DHT22;4482;54.332;10.118;2023-04-01T09:38:51;4.20;99.90
8892;DHT22;4482;54.332;10.118;2023-04-01T09:41:22;4.20;99.90
8892;DHT22;4482;54.332;10.118;2023-04-01T09:43:57;4.30;99.90
8892;DHT22;4482;54.332;10.118;2023-04-01T09:46:29;4.20;99.90
8892;DHT22;4482;54.332;10.118;2023-04-01T09:51:47;4.20;99.90
8892;DHT22;4482;54.332;10.118;2023-04-01T09:54:20;4.20;99.90
8892;DHT22;4482;54.332;10.118;2023-04-01T09:59:51;4.20;99.90
8892;DHT22;4482;54.332;10.118;2023-04-01T10:02:33;4.10;99.90
8892;DHT22;4482;54.332;10.118;2023-04-01T10:05:11;4.10;99.90
8892;DHT22;4482;54.332;10.118;2023-04-01T10:16:17;4.20;99.90
8892;DHT22;4482;54.332;10.118;2023-04-01T10:18:54;4.10;99.90
8892;DHT22;4482;54.332;10.118;2023-04-01T10:24:21;4.10;99.90
8892;DHT22;4482;54.332;10.118;2023-04-01T10:26:56;4.10;99.90
8892;DHT22;4482;54.332;10.118;2023-04-01T10:32:22;4.10;99.90
8892;DHT22;4482;54.332;10.118;2023-04-01T10:38:13;4.00;99.90
8892;DHT22;4482;54.332;10.118;2023-04-01T10:40:53;4.00;99.90
8892;DHT22;4482;54.332;10.118;2023-04-01T10:43:29;3.90;99.90
8892;DHT22;4482;54.332;10.118;2023-04-01T10:46:14;3.90;99.90
8892;DHT22;4482;54.332;10.118;2023-04-01T10:48:49;3.80;99.90
8892;DHT22;4482;54.332;10.118;2023-04-01T10:51:33;3.80;99.90
8892;DHT22;4482;54.332;10.118;2023-04-01T10:56:47;3.80;99.90
8892;DHT22;4482;54.332;10.118;2023-04-01T10:59:32;3.90;99.90
8892;DHT22;4482;54.332;10.118;2023-04-01T11:10:44;3.80;99.90
8892;DHT22;4482;54.332;10.118;2023-04-01T11:13:38;3.90;99.90
8892;DHT22;4482;54.332;10.118;2023-04-01T11:19:04;3.80;99.90
8892;DHT22;4482;54.332;10.118;2023-04-01T11:21:46;3.90;99.90
8892;DHT22;4482;54.332;10.118;2023-04-01T11:24:26;3.80;99.90
8892;DHT22;4482;54.332;10.118;2023-04-01T11:26:59;3.90;99.90
8892;DHT22;4482;54.332;10.118;2023-04-01T11:29:34;3.90;99.90
8892;DHT22;4482;54.332;10.118;2023-04-01T11:32:07;3.90;99.90
8892;DHT22;4482;54.332;10.118;2023-04-01T11:34:43;3.90;99.90
8892;DHT22;4482;54.332;10.118;2023-04-01T11:37:17;4.00;99.90
8892;DHT22;4482;54.332;10.118;2023-04-01T11:39:59;4.00;99.90
8892;DHT22;4482;54.332;10.118;2023-04-01T11:42:30;4.10;99.90
8892;DHT22;4482;54.332;10.118;2023-04-01T11:45:03;4.10;99.90
8892;DHT22;4482;54.332;10.118;2023-04-01T11:47:41;4.10;99.90
8892;DHT22;4482;54.332;10.118;2023-04-01T11:50:15;4.10;99.90
8892;DHT22;4482;54.332;10.118;2023-04-01T11:52:51;4.20;99.90
8892;DHT22;4482;54.332;10.118;2023-04-01T11:55:31;4.20;99.90
8892;DHT22;4482;54.332;10.118;2023-04-01T12:00:54;4.40;99.90
8892;DHT22;4482;54.332;10.118;2023-04-01T12:06:09;4.30;99.90
8892;DHT22;4482;54.332;10.118;2023-04-01T12:08:39;4.30;99.90
8892;DHT22;4482;54.332;10.118;2023-04-01T12:11:12;4.30;99.90
8892;DHT22;4482;54.332;10.118;2023-04-01T12:13:45;4.30;99.90
8892;DHT22;4482;54.332;10.118;2023-04-01T12:18:59;4.50;99.90
8892;DHT22;4482;54.332;10.118;2023-04-01T12:21:32;4.60;99.90
8892;DHT22;4482;54.332;10.118;2023-04-01T12:24:10;4.50;99.90
8892;DHT22;4482;54.332;10.118;2023-04-01T12:26:52;4.50;99.90
8892;DHT22;4482;54.332;10.118;2023-04-01T12:32:12;4.50;99.90
8892;DHT22;4482;54.332;10.118;2023-04-01T12:34:49;4.40;99.90
8892;DHT22;4482;54.332;10.118;2023-04-01T12:37:26;4.50;99.90
8892;DHT22;4482;54.332;10.118;2023-04-01T12:40:01;4.50;99.90
8892;DHT22;4482;54.332;10.118;2023-04-01T12:42:34;4.50;99.90
8892;DHT22;4482;54.332;10.118;2023-04-01T12:45:15;4.40;99.90
8892;DHT22;4482;54.332;10.118;2023-04-01T12:50:36;4.50;99.90
8892;DHT22;4482;54.332;10.118;2023-04-01T12:53:08;4.40;99.90
8892;DHT22;4482;54.332;10.118;2023-04-01T12:55:38;4.50;99.90
8892;DHT22;4482;54.332;10.118;2023-04-01T13:00:53;4.50;99.90
8892;DHT22;4482;54.332;10.118;2023-04-01T13:03:30;4.60;99.90
8892;DHT22;4482;54.332;10.118;2023-04-01T13:08:44;4.40;99.90
8892;DHT22;4482;54.332;10.118;2023-04-01T13:11:18;4.40;99.90
8892;DHT22;4482;54.332;10.118;2023-04-01T13:13:59;4.40;99.90
8892;DHT22;4482;54.332;10.118;2023-04-01T13:16:30;4.40;99.90
8892;DHT22;4482;54.332;10.118;2023-04-01T13:18:58;4.40;99.90
8892;DHT22;4482;54.332;10.118;2023-04-01T13:21:32;4.40;99.90
8892;DHT22;4482;54.332;10.118;2023-04-01T13:24:03;4.50;99.90
8892;DHT22;4482;54.332;10.118;2023-04-01T13:26:34;4.50;99.90
8892;DHT22;4482;54.332;10.118;2023-04-01T13:29:04;4.40;99.90
8892;DHT22;4482;54.332;10.118;2023-04-01T13:31:36;4.40;99.90
8892;DHT22;4482;54.332;10.118;2023-04-01T13:34:20;4.40;99.90
8892;DHT22;4482;54.332;10.118;2023-04-01T13:36:53;4.40;99.90
8892;DHT22;4482;54.332;10.118;2023-04-01T13:39:26;4.40;99.90
8892;DHT22;4482;54.332;10.118;2023-04-01T13:42:00;4.40;99.90
8892;DHT22;4482;54.332;10.118;2023-04-01T13:44:29;4.30;99.90
8892;DHT22;4482;54.332;10.118;2023-04-01T13:49:46;4.40;99.90
8892;DHT22;4482;54.332;10.118;2023-04-01T13:52:23;4.30;99.90
8892;DHT22;4482;54.332;10.118;2023-04-01T13:55:00;4.30;99.90
8892;DHT22;4482;54.332;10.118;2023-04-01T13:57:34;4.20;99.90
8892;DHT22;4482;54.332;10.118;2023-04-01T14:00:06;4.20;99.90
8892;DHT22;4482;54.332;10.118;2023-04-01T14:02:44;4.20;99.90
8892;DHT22;4482;54.332;10.118;2023-04-01T14:05:23;4.20;99.90
8892;DHT22;4482;54.332;10.118;2023-04-01T14:07:56;4.20;99.90
8892;DHT22;4482;54.332;10.118;2023-04-01T14:10:30;4.20;99.90
8892;DHT22;4482;54.332;10.118;2023-04-01T14:12:58;4.20;99.90
8892;DHT22;4482;54.332;10.118;2023-04-01T14:15:30;4.20;99.90
8892;DHT22;4482;54.332;10.118;2023-04-01T14:18:09;4.20;99.90
8892;DHT22;4482;54.332;10.118;2023-04-01T14:20:38;4.10;99.90
8892;DHT22;4482;54.332;10.118;2023-04-01T14:23:14;4.10;99.90
8892;DHT22;4482;54.332;10.118;2023-04-01T14:28:31;4.10;99.90
8892;DHT22;4482;54.332;10.118;2023-04-01T14:31:10;4.10;99.90
8892;DHT22;4482;54.332;10.118;2023-04-01T14:33:41;4.10;99.90
8892;DHT22;4482;54.332;10.118;2023-04-01T14:36:21;4.10;99.90
8892;DHT22;4482;54.332;10.118;2023-04-01T14:38:53;4.10;99.90
8892;DHT22;4482;54.332;10.118;2023-04-01T14:41:24;4.10;99.90
8892;DHT22;4482;54.332;10.118;2023-04-01T14:44:05;4.10;99.90
8892;DHT22;4482;54.332;10.118;2023-04-01T14:46:40;4.20;99.90
8892;DHT22;4482;54.332;10.118;2023-04-01T14:49:17;4.30;99.90
8892;DHT22;4482;54.332;10.118;2023-04-01T14:51:48;4.30;99.90
8892;DHT22;4482;54.332;10.118;2023-04-01T14:54:17;4.30;99.90
8892;DHT22;4482;54.332;10.118;2023-04-01T14:56:48;4.30;99.90
8892;DHT22;4482;54.332;10.118;2023-04-01T14:59:25;4.30;99.90
8892;DHT22;4482;54.332;10.118;2023-04-01T15:01:55;4.30;99.90
8892;DHT22;4482;54.332;10.118;2023-04-01T15:07:18;4.30;99.90
8892;DHT22;4482;54.332;10.118;2023-04-01T15:09:49;4.30;99.90
8892;DHT22;4482;54.332;10.118;2023-04-01T15:12:23;4.40;99.90
8892;DHT22;4482;54.332;10.118;2023-04-01T15:15:11;4.30;99.90
8892;DHT22;4482;54.332;10.118;2023-04-01T15:17:43;4.40;99.90
8892;DHT22;4482;54.332;10.118;2023-04-01T15:20:15;4.30;99.90
8892;DHT22;4482;54.332;10.118;2023-04-01T15:22:47;4.30;99.90
8892;DHT22;4482;54.332;10.118;2023-04-01T15:25:19;4.20;99.90
8892;DHT22;4482;54.332;10.118;2023-04-01T15:27:48;4.30;99.90
8892;DHT22;4482;54.332;10.118;2023-04-01T15:33:09;4.30;99.90
8892;DHT22;4482;54.332;10.118;2023-04-01T15:35:42;4.30;99.90
8892;DHT22;4482;54.332;10.118;2023-04-01T15:38:14;4.40;99.90
8892;DHT22;4482;54.332;10.118;2023-04-01T15:40:47;4.40;99.90
8892;DHT22;4482;54.332;10.118;2023-04-01T15:43:20;4.50;99.90
8892;DHT22;4482;54.332;10.118;2023-04-01T15:45:52;4.50;99.90
8892;DHT22;4482;54.332;10.118;2023-04-01T15:48:33;4.40;99.90
8892;DHT22;4482;54.332;10.118;2023-04-01T15:51:16;4.40;99.90
8892;DHT22;4482;54.332;10.118;2023-04-01T15:53:59;4.30;99.90
8892;DHT22;4482;54.332;10.118;2023-04-01T15:56:36;4.40;99.90
8892;DHT22;4482;54.332;10.118;2023-04-01T15:59:11;4.50;99.90
8892;DHT22;4482;54.332;10.118;2023-04-01T16:01:43;4.40;99.90
8892;DHT22;4482;54.332;10.118;2023-04-01T16:04:20;4.30;99.90
8892;DHT22;4482;54.332;10.118;2023-04-01T16:06:56;4.30;99.90
8892;DHT22;4482;54.332;10.118;2023-04-01T16:09:36;4.30;99.90
8892;DHT22;4482;54.332;10.118;2023-04-01T16:12:07;4.40;99.90
8892;DHT22;4482;54.332;10.118;2023-04-01T16:14:39;4.40;99.90
8892;DHT22;4482;54.332;10.118;2023-04-01T16:17:12;4.30;99.90
8892;DHT22;4482;54.332;10.118;2023-04-01T16:19:45;4.30;99.90
8892;DHT22;4482;54.332;10.118;2023-04-01T16:22:16;4.30;99.90
8892;DHT22;4482;54.332;10.118;2023-04-01T16:24:48;4.20;99.90
8892;DHT22;4482;54.332;10.118;2023-04-01T16:27:18;4.20;99.90
8892;DHT22;4482;54.332;10.118;2023-04-01T16:29:48;4.20;99.90
8892;DHT22;4482;54.332;10.118;2023-04-01T16:32:18;4.20;99.90
8892;DHT22;4482;54.332;10.118;2023-04-01T16:34:55;4.30;99.90
8892;DHT22;4482;54.332;10.118;2023-04-01T16:37:28;4.30;99.90
8892;DHT22;4482;54.332;10.118;2023-04-01T16:40:01;4.20;99.90
8892;DHT22;4482;54.332;10.118;2023-04-01T16:42:31;4.20;99.90
8892;DHT22;4482;54.332;10.118;2023-04-01T16:45:06;4.20;99.90
8892;DHT22;4482;54.332;10.118;2023-04-01T16:47:46;4.20;99.90
8892;DHT22;4482;54.332;10.118;2023-04-01T16:50:17;4.20;99.90
8892;DHT22;4482;54.332;10.118;2023-04-01T16:52:53;4.10;99.90
8892;DHT22;4482;54.332;10.118;2023-04-01T16:55:33;4.20;99.90
8892;DHT22;4482;54.332;10.118;2023-04-01T16:58:00;4.10;99.90
8892;DHT22;4482;54.332;10.118;2023-04-01T17:00:27;4.10;99.90
8892;DHT22;4482;54.332;10.118;2023-04-01T17:02:57;4.00;99.90
8892;DHT22;4482;54.332;10.118;2023-04-01T17:05:35;4.00;99.90
8892;DHT22;4482;54.332;10.118;2023-04-01T17:08:05;4.00;99.90
8892;DHT22;4482;54.332;10.118;2023-04-01T17:10:41;4.00;99.90
8892;DHT22;4482;54.332;10.118;2023-04-01T17:13:22;4.00;99.90
8892;DHT22;4482;54.332;10.118;2023-04-01T17:15:53;4.00;99.90
8892;DHT22;4482;54.332;10.118;2023-04-01T17:18:23;3.90;99.90
8892;DHT22;4482;54.332;10.118;2023-04-01T17:20:55;3.90;99.90
8892;DHT22;4482;54.332;10.118;2023-04-01T17:23:24;3.90;99.90
8892;DHT22;4482;54.332;10.118;2023-04-01T17:25:57;3.90;99.90
8892;DHT22;4482;54.332;10.118;2023-04-01T17:28:33;3.90;99.90
8892;DHT22;4482;54.332;10.118;2023-04-01T17:31:02;3.90;99.90
8892;DHT22;4482;54.332;10.118;2023-04-01T17:33:35;3.80;99.90
8892;DHT22;4482;54.332;10.118;2023-04-01T17:36:11;3.80;99.90
8892;DHT22;4482;54.332;10.118;2023-04-01T17:38:46;3.80;99.90
8892;DHT22;4482;54.332;10.118;2023-04-01T17:41:16;3.70;99.90
8892;DHT22;4482;54.332;10.118;2023-04-01T17:43:47;3.70;99.90
8892;DHT22;4482;54.332;10.118;2023-04-01T17:46:23;3.70;99.90
8892;DHT22;4482;54.332;10.118;2023-04-01T17:48:54;3.60;99.90
8892;DHT22;4482;54.332;10.118;2023-04-01T17:51:28;3.60;99.90